首页
METAR-TAF:

METAR-TAF

机场 :

Chibougamau, 魁北克, 加拿大

纬度: 49-46N, 经度: 074-32W, 海拔: 388米

当前天气观测

该预报发布于1小时和7分钟前的08:00 UTC
风速4节,风向
温度 13°C
湿度 100%
气压 1014 hPa
能見度: 14.5公里
少量云层高于7000英尺

METAR: CYMT 270800Z AUTO 17004KT 9SM FEW070 13/13 A2994 RMK SLP144 DENSITY ALT 1300FT

时间: 05:07 (09:07 UTC)

预报

该预报发布于15小时和0分钟前的18:07 UTC
预报有效从26日的 18点(UTC)到 26日的 24点(UTC)
风速12节,风向,有时为22节阵风
能見度: 10公里
多云层高于3000英尺
阴天层高于5000英尺
短暂存在
从 26日的 18点(UTC)到 26日的 21点(UTC)
阴天层高于3000英尺, 积雨云.
雷暴, 雨, 轻雾
从 26日的 2100点(UTC)
风速12节,风向南转南东,有时为22节阵风
能見度: 10公里
多云层高于3000英尺
多云层高于5000英尺
短暂存在
从 26日的 21点(UTC)到 26日的 24点(UTC)
能見度: 4.8公里
小阵雨, 轻雾
几率 40%
从 26日的 21点(UTC)到 26日的 24点(UTC)
能見度: 1.6公里
多云层高于1500英尺
阴天层高于3000英尺, 积雨云.
雷暴, 大雨, 轻雾

TAF: CYMT 261807Z 2618/2624 17012G22KT P6SM BKN030 OVC050 TEMPO 2618/2621 21/2SM TSRA BR OVC030CB FM262100 15012G22KT P6SM BKN030 BKN050 TEMPO 2621/2624 3SM -SHRA BR PROB40 2621/2624 1SM +TSRA BR BKN015 OVC030CB RMK FCST BASED ON AUTO OBS. NXT FCST WILL BE ISSUED AT 271145Z

超过4000个机场的气象观测和天气预报(METAR&TAF报告)。

可查询的气象台以黄色和红色小点在地图上表示。

将鼠标移到小点上方,可查看气象台名称。

然后点击查看天气观测和预报。

如需切换地图:点击带黑十字的绿色按钮放大地图;点击带横线的绿色按钮缩小地图;或者点击绿色箭头查看邻近地区的地图。


METAR-TAF: